createdAt,value
2023-02-27T00:04:30.031Z,1.55
2023-02-27T00:09:21.917Z,1.10
2023-02-27T00:14:13.734Z,1.35
2023-02-27T00:19:05.736Z,1.17
2023-02-27T00:23:57.642Z,2.10
2023-02-27T00:28:49.557Z,1.52
2023-02-27T00:33:41.531Z,1.40
2023-02-27T00:38:34.978Z,0.80
2023-02-27T00:43:26.935Z,3.30
2023-02-27T00:48:18.944Z,1.83
2023-02-27T00:53:10.939Z,2.00
2023-02-27T00:58:02.931Z,1.03
2023-02-27T01:02:54.803Z,1.37
2023-02-27T01:07:46.748Z,1.67
2023-02-27T01:12:39.423Z,1.73
2023-02-27T01:17:32.777Z,1.15
2023-02-27T01:22:24.729Z,2.15
2023-02-27T01:27:16.790Z,1.85
2023-02-27T01:32:08.939Z,1.23
2023-02-27T01:37:00.874Z,1.50
2023-02-27T01:41:52.891Z,2.08
2023-02-27T01:46:45.834Z,1.75
2023-02-27T01:51:42.617Z,1.27
2023-02-27T01:56:34.542Z,1.48
2023-02-27T02:01:27.396Z,0.70
2023-02-27T02:06:20.964Z,1.73
2023-02-27T02:11:14.144Z,2.00
2023-02-27T02:16:34.046Z,1.58
2023-02-27T02:21:37.818Z,1.55
2023-02-27T02:26:38.862Z,1.38
2023-02-27T02:31:52.097Z,0.93
2023-02-27T02:37:09.084Z,2.85
2023-02-27T02:42:24.515Z,0.93
2023-02-27T02:47:30.894Z,1.33
2023-02-27T02:52:43.722Z,2.28
2023-02-27T02:57:39.772Z,1.30
2023-02-27T03:02:36.743Z,1.00
2023-02-27T03:07:53.308Z,0.77
2023-02-27T03:12:59.676Z,1.20
2023-02-27T03:18:03.786Z,1.88
2023-02-27T03:22:57.232Z,0.90
2023-02-27T03:28:00.311Z,1.83
2023-02-27T03:32:59.057Z,1.85
2023-02-27T03:37:53.973Z,2.53
2023-02-27T03:42:58.125Z,1.20
2023-02-27T03:47:58.695Z,2.57
2023-02-27T03:52:50.779Z,1.92
2023-02-27T03:57:44.385Z,2.17
2023-02-27T04:02:36.516Z,2.00
2023-02-27T04:07:34.794Z,1.40
2023-02-27T04:12:51.355Z,2.22
2023-02-27T04:18:00.992Z,1.77
2023-02-27T04:22:59.900Z,1.45
2023-02-27T04:27:51.649Z,2.45
2023-02-27T04:33:07.728Z,1.40
2023-02-27T04:38:35.010Z,1.77
2023-02-27T04:43:28.007Z,1.27
2023-02-27T04:48:29.553Z,1.52
2023-02-27T04:53:25.982Z,1.50
2023-02-27T04:58:27.076Z,2.03
2023-02-27T05:03:24.158Z,1.85
2023-02-27T05:08:28.636Z,2.47
2023-02-27T05:13:48.150Z,1.45
2023-02-27T05:18:39.957Z,1.52
2023-02-27T05:23:35.146Z,1.38
2023-02-27T05:28:34.755Z,2.17
2023-02-27T05:33:32.744Z,2.10
2023-02-27T05:38:39.014Z,1.45
2023-02-27T05:43:37.826Z,2.70
2023-02-27T05:48:33.997Z,1.08
2023-02-27T05:53:30.958Z,1.30
2023-02-27T05:58:36.821Z,1.85
2023-02-27T06:03:30.125Z,1.65
2023-02-27T06:08:22.139Z,1.80
2023-02-27T06:13:13.975Z,2.00
2023-02-27T06:18:05.941Z,1.52
2023-02-27T06:22:57.833Z,1.77
2023-02-27T06:27:49.724Z,1.45
2023-02-27T06:32:41.727Z,2.15
2023-02-27T06:37:33.569Z,1.50
2023-02-27T06:42:25.822Z,2.97
2023-02-27T06:47:18.226Z,1.38
2023-02-27T06:52:10.109Z,1.27
2023-02-27T06:57:02.077Z,1.33
2023-02-27T07:01:54.022Z,1.60
2023-02-27T07:07:32.722Z,1.40
2023-02-27T07:11:57.847Z,0.82
2023-02-27T07:16:54.124Z,1.93
2023-02-27T07:21:46.113Z,1.98
2023-02-27T07:26:38.080Z,1.60
2023-02-27T07:31:30.202Z,1.40
2023-02-27T07:36:22.452Z,0.93
2023-02-27T07:41:29.652Z,1.43
2023-02-27T07:46:27.573Z,1.48
2023-02-27T07:51:20.029Z,1.67
2023-02-27T07:56:11.937Z,1.80
2023-02-27T08:01:03.862Z,1.92
2023-02-27T08:05:55.708Z,1.73
2023-02-27T08:10:48.061Z,0.88
2023-02-27T08:15:40.120Z,1.40
2023-02-27T08:20:32.164Z,1.67
2023-02-27T08:25:24.655Z,2.93
2023-02-27T08:30:19.610Z,2.20
2023-02-27T08:35:12.388Z,1.45
2023-02-27T08:40:07.162Z,1.02
2023-02-27T08:44:59.326Z,1.55
2023-02-27T08:49:51.300Z,1.20
2023-02-27T08:54:43.261Z,1.70
2023-02-27T08:59:35.160Z,1.23
2023-02-27T09:04:27.486Z,1.77
2023-02-27T09:09:19.726Z,0.95
2023-02-27T09:14:11.837Z,1.13
2023-02-27T09:19:04.749Z,2.17
2023-02-27T09:28:56.603Z,1.92
2023-02-27T09:33:48.444Z,0.70
2023-02-27T09:38:41.585Z,1.35
2023-02-27T09:43:53.721Z,1.65
2023-02-27T09:48:49.309Z,2.23
2023-02-27T09:53:46.877Z,1.50
2023-02-27T09:58:56.917Z,1.65
2023-02-27T10:04:01.111Z,1.17
2023-02-27T10:08:55.836Z,1.55
2023-02-27T10:13:53.929Z,3.17
2023-02-27T10:18:55.946Z,1.35
2023-02-27T10:24:27.557Z,3.70
2023-02-27T10:29:25.656Z,1.38
2023-02-27T10:34:18.040Z,2.55
2023-02-27T10:39:13.858Z,1.45
2023-02-27T10:44:05.989Z,0.98
2023-02-27T10:49:02.521Z,1.50
2023-02-27T10:54:24.499Z,2.35
2023-02-27T10:59:19.131Z,2.33
2023-02-27T11:04:12.631Z,2.22
2023-02-27T11:09:23.478Z,2.10
2023-02-27T11:14:16.518Z,2.88
2023-02-27T11:19:36.796Z,2.13
2023-02-27T11:24:29.216Z,3.67
2023-02-27T11:29:21.419Z,3.03
2023-02-27T11:34:36.725Z,2.90
2023-02-27T11:39:37.776Z,2.50
2023-02-27T11:44:50.305Z,3.03
2023-02-27T11:50:01.756Z,3.38
2023-02-27T11:54:59.134Z,2.38
2023-02-27T11:59:52.597Z,2.35
2023-02-27T12:04:56.074Z,2.03
2023-02-27T12:09:57.823Z,2.53
2023-02-27T12:15:10.009Z,2.50
2023-02-27T12:20:09.805Z,1.92
2023-02-27T12:25:25.893Z,2.83
2023-02-27T12:30:20.911Z,2.63
2023-02-27T12:35:13.072Z,2.58
2023-02-27T12:40:10.447Z,1.97
2023-02-27T12:45:20.912Z,2.75
2023-02-27T12:50:17.440Z,2.42
2023-02-27T12:55:15.538Z,2.15
2023-02-27T13:00:17.586Z,2.20
2023-02-27T13:05:35.823Z,3.28
2023-02-27T13:10:32.000Z,2.45
2023-02-27T13:15:41.969Z,2.70
2023-02-27T13:20:44.754Z,5.28
2023-02-27T13:25:38.985Z,2.10
2023-02-27T13:30:36.983Z,3.05
2023-02-27T13:35:51.438Z,2.17
2023-02-27T13:40:43.407Z,2.70
2023-02-27T13:45:55.511Z,3.65
2023-02-27T13:50:49.021Z,2.50
2023-02-27T13:55:40.979Z,3.08
2023-02-27T14:00:34.991Z,2.60
2023-02-27T14:05:35.235Z,2.63
2023-02-27T14:10:29.407Z,2.38
2023-02-27T14:15:24.391Z,2.67
2023-02-27T14:20:27.491Z,4.22
2023-02-27T14:25:58.357Z,3.17
2023-02-27T14:30:57.875Z,3.80
2023-02-27T14:36:08.572Z,2.72
2023-02-27T14:41:48.785Z,2.20
2023-02-27T14:46:41.542Z,2.47
2023-02-27T14:51:35.298Z,2.92
2023-02-27T14:56:27.501Z,3.35
2023-02-27T15:01:20.227Z,3.20
2023-02-27T15:06:44.675Z,3.22
2023-02-27T15:11:41.218Z,4.07
2023-02-27T15:16:37.991Z,2.60
2023-02-27T15:21:33.954Z,2.65
2023-02-27T15:26:26.733Z,2.63
2023-02-27T15:31:21.396Z,3.17
2023-02-27T15:36:22.202Z,2.83
2023-02-27T15:41:21.155Z,3.03
2023-02-27T15:46:13.229Z,2.33
2023-02-27T15:51:05.445Z,3.30
2023-02-27T15:56:04.512Z,3.27
2023-02-27T16:01:00.888Z,2.85
2023-02-27T16:05:53.478Z,2.90
2023-02-27T16:10:46.005Z,2.35
2023-02-27T16:15:40.042Z,2.85
2023-02-27T16:20:55.089Z,2.67
2023-02-27T16:26:32.598Z,2.65
2023-02-27T16:31:32.756Z,2.70
2023-02-27T16:36:27.108Z,3.72
2023-02-27T16:41:21.688Z,3.72
2023-02-27T16:46:19.995Z,2.90
2023-02-27T16:51:20.043Z,2.72
2023-02-27T16:56:13.007Z,3.97
2023-02-27T17:05:57.997Z,3.80
2023-02-27T17:10:50.323Z,3.53
2023-02-27T17:15:42.279Z,4.15
2023-02-27T17:20:34.112Z,3.28
2023-02-27T17:25:27.046Z,3.25
2023-02-27T17:35:11.427Z,2.65
2023-02-27T17:40:04.962Z,5.07
2023-02-27T17:44:57.269Z,3.15
2023-02-27T17:49:49.262Z,2.70
2023-02-27T17:54:41.290Z,4.73
2023-02-27T17:59:33.432Z,3.43
2023-02-27T18:04:25.546Z,4.80
2023-02-27T18:09:17.817Z,4.33
2023-02-27T18:14:09.893Z,3.50
2023-02-27T18:19:04.014Z,4.20
2023-02-27T18:23:56.364Z,3.83
2023-02-27T18:28:49.279Z,3.05
2023-02-27T18:33:41.171Z,3.35
2023-02-27T18:38:32.991Z,3.80
2023-02-27T18:43:25.203Z,3.17
2023-02-27T18:48:17.364Z,4.30
2023-02-27T18:53:09.291Z,4.07
2023-02-27T18:58:01.312Z,4.25
2023-02-27T19:02:53.215Z,4.33
2023-02-27T19:07:45.193Z,3.58
2023-02-27T19:12:37.289Z,3.80
2023-02-27T19:17:29.197Z,3.80
2023-02-27T19:22:21.434Z,5.60
2023-02-27T19:27:14.390Z,3.90
2023-02-27T19:37:00.358Z,4.15
2023-02-27T19:41:52.267Z,4.32
2023-02-27T19:46:46.525Z,4.63
2023-02-27T19:51:39.000Z,3.67
2023-02-27T19:56:31.127Z,3.95
2023-02-27T20:01:25.500Z,5.53
2023-02-27T20:06:23.252Z,4.72
2023-02-27T20:11:17.520Z,3.33
2023-02-27T20:16:10.301Z,3.35
2023-02-27T20:21:07.119Z,4.22
2023-02-27T20:25:59.189Z,4.35
2023-02-27T20:30:51.411Z,4.17
2023-02-27T20:35:43.307Z,3.97
2023-02-27T20:40:35.346Z,4.00
2023-02-27T20:45:28.365Z,4.13
2023-02-27T20:50:20.354Z,4.25
2023-02-27T20:55:12.232Z,4.95
2023-02-27T21:00:05.558Z,3.55
2023-02-27T21:04:58.380Z,4.65
2023-02-27T21:14:45.408Z,4.40
2023-02-27T21:19:40.278Z,4.47
2023-02-27T21:24:32.534Z,4.45
2023-02-27T21:29:25.007Z,3.97
2023-02-27T21:34:20.210Z,4.05
2023-02-27T21:39:15.003Z,4.90
2023-02-27T21:44:08.483Z,5.05
2023-02-27T21:49:00.983Z,4.47
2023-02-27T21:54:00.286Z,5.13
2023-02-27T21:58:52.129Z,3.95
2023-02-27T22:03:45.047Z,4.97
2023-02-27T22:13:30.957Z,4.40
2023-02-27T22:18:22.834Z,5.07
2023-02-27T22:23:14.983Z,4.80
2023-02-27T22:28:07.436Z,4.43
2023-02-27T22:32:59.225Z,4.32
2023-02-27T22:37:51.476Z,4.90
2023-02-27T22:42:48.088Z,4.77
2023-02-27T22:47:40.350Z,5.03
2023-02-27T22:52:32.197Z,5.30
2023-02-27T22:57:24.038Z,5.07
2023-02-27T23:02:17.438Z,4.60
2023-02-27T23:07:09.613Z,5.47
2023-02-27T23:12:03.982Z,4.27
2023-02-27T23:16:55.936Z,4.45
2023-02-27T23:21:47.903Z,4.00
2023-02-27T23:26:42.057Z,5.00
2023-02-27T23:31:35.806Z,5.20
2023-02-27T23:36:28.345Z,4.65
2023-02-27T23:41:20.999Z,5.30
2023-02-27T23:46:15.240Z,4.15
2023-02-27T23:51:08.193Z,4.32
